createdAt,value
2022-12-31T00:01:25.726Z,3.70
2022-12-31T00:06:33.943Z,3.60
2022-12-31T00:11:36.716Z,3.50
2022-12-31T00:16:40.661Z,3.60
2022-12-31T00:21:43.801Z,3.50
2022-12-31T00:26:45.617Z,3.40
2022-12-31T00:31:47.422Z,3.30
2022-12-31T00:36:49.176Z,3.40
2022-12-31T00:41:51.117Z,3.40
2022-12-31T00:46:52.860Z,3.50
2022-12-31T00:51:54.547Z,3.40
2022-12-31T00:56:56.258Z,3.40
2022-12-31T01:01:58.084Z,3.20
2022-12-31T01:06:59.876Z,3.00
2022-12-31T01:12:01.855Z,2.80
2022-12-31T01:17:03.608Z,3.00
2022-12-31T01:22:05.339Z,3.00
2022-12-31T01:27:07.176Z,3.00
2022-12-31T01:32:08.900Z,2.80
2022-12-31T01:37:10.612Z,2.90
2022-12-31T01:42:12.867Z,2.80
2022-12-31T01:47:18.099Z,2.80
2022-12-31T01:52:32.340Z,2.80
2022-12-31T01:57:35.331Z,2.70
2022-12-31T02:02:37.236Z,2.60
2022-12-31T02:07:39.637Z,2.70
2022-12-31T02:12:41.509Z,2.70
2022-12-31T02:18:02.147Z,2.60
2022-12-31T02:23:36.627Z,2.60
2022-12-31T02:28:50.333Z,2.70
2022-12-31T02:34:17.880Z,2.60
2022-12-31T02:39:19.932Z,2.60
2022-12-31T02:44:43.999Z,2.60
2022-12-31T02:50:16.001Z,2.50
2022-12-31T02:55:36.649Z,2.60
2022-12-31T03:01:05.160Z,2.60
2022-12-31T03:06:09.475Z,2.60
2022-12-31T03:11:31.163Z,2.60
2022-12-31T03:16:34.077Z,2.40
2022-12-31T03:22:07.968Z,2.40
2022-12-31T03:27:09.698Z,2.40
2022-12-31T03:32:11.402Z,2.30
2022-12-31T03:37:13.126Z,2.30
2022-12-31T03:42:14.880Z,2.30
2022-12-31T03:47:16.802Z,2.30
2022-12-31T03:52:18.592Z,2.30
2022-12-31T03:57:20.264Z,2.40
2022-12-31T04:02:28.128Z,2.40
2022-12-31T04:07:30.912Z,2.40
2022-12-31T04:12:33.264Z,2.40
2022-12-31T04:17:34.996Z,2.50
2022-12-31T04:22:36.717Z,2.40
2022-12-31T04:27:40.081Z,2.60
2022-12-31T04:32:42.363Z,2.60
2022-12-31T04:37:44.119Z,2.60
2022-12-31T04:42:45.833Z,2.60
2022-12-31T04:47:47.741Z,2.70
2022-12-31T04:52:49.480Z,2.70
2022-12-31T04:57:51.229Z,2.70
2022-12-31T05:02:52.955Z,2.80
2022-12-31T05:07:54.681Z,2.70
2022-12-31T05:12:56.498Z,2.80
2022-12-31T05:17:58.262Z,3.00
2022-12-31T05:23:00.093Z,2.90
2022-12-31T05:28:01.852Z,3.00
2022-12-31T05:33:04.022Z,3.10
2022-12-31T05:38:05.775Z,3.10
2022-12-31T05:43:07.583Z,3.20
2022-12-31T05:48:10.397Z,3.30
2022-12-31T05:53:12.113Z,3.40
2022-12-31T05:58:15.202Z,3.60
2022-12-31T06:03:17.025Z,3.60
2022-12-31T06:08:18.859Z,3.60
2022-12-31T06:13:20.568Z,3.60
2022-12-31T06:18:22.331Z,3.50
2022-12-31T06:23:24.120Z,3.70
2022-12-31T06:28:25.824Z,3.80
2022-12-31T06:33:28.224Z,3.80
2022-12-31T06:38:31.888Z,3.80
2022-12-31T06:43:35.224Z,3.70
2022-12-31T06:48:37.597Z,3.70
2022-12-31T06:53:40.221Z,3.80
2022-12-31T06:58:42.337Z,3.80
2022-12-31T07:04:05.339Z,3.90
2022-12-31T07:09:21.437Z,4.00
2022-12-31T07:15:02.774Z,4.00
2022-12-31T07:20:07.703Z,3.90
2022-12-31T07:25:17.080Z,3.80
2022-12-31T07:30:26.864Z,3.80
2022-12-31T07:35:47.234Z,3.80
2022-12-31T07:41:09.439Z,3.80
2022-12-31T07:46:55.722Z,3.80
2022-12-31T07:51:58.069Z,3.70
2022-12-31T07:57:00.027Z,3.60
2022-12-31T08:02:49.909Z,3.50
2022-12-31T08:08:23.669Z,3.50
2022-12-31T08:13:26.091Z,3.50
2022-12-31T08:18:28.048Z,3.40
2022-12-31T08:23:43.906Z,3.50
2022-12-31T08:29:06.625Z,3.50
2022-12-31T08:34:30.306Z,3.60
2022-12-31T08:39:57.812Z,3.60
2022-12-31T08:45:04.844Z,3.70
2022-12-31T08:50:12.869Z,3.70
2022-12-31T08:55:17.283Z,3.70
2022-12-31T09:00:20.125Z,3.80
2022-12-31T09:05:50.943Z,3.80
2022-12-31T09:11:36.792Z,3.90
2022-12-31T09:16:53.563Z,3.90
2022-12-31T09:21:55.742Z,3.80
2022-12-31T09:27:27.631Z,3.90
2022-12-31T09:32:40.930Z,3.90
2022-12-31T09:37:53.217Z,3.90
2022-12-31T09:43:31.704Z,3.90
2022-12-31T09:48:39.359Z,3.90
2022-12-31T09:54:22.288Z,3.90
2022-12-31T09:59:31.905Z,4.00
2022-12-31T10:05:24.042Z,3.90
2022-12-31T10:11:15.313Z,4.00
2022-12-31T10:16:53.056Z,4.00
2022-12-31T10:22:22.658Z,4.00
2022-12-31T10:28:06.924Z,4.10
2022-12-31T10:33:18.149Z,4.10
2022-12-31T10:38:50.535Z,4.20
2022-12-31T10:44:07.211Z,4.20
2022-12-31T10:49:47.260Z,4.30
2022-12-31T10:55:05.170Z,4.30
2022-12-31T11:00:19.835Z,4.30
2022-12-31T11:06:12.159Z,4.30
2022-12-31T11:11:46.905Z,4.40
2022-12-31T11:17:02.816Z,4.40
2022-12-31T11:22:10.247Z,4.50
2022-12-31T11:27:49.322Z,4.60
2022-12-31T11:33:20.052Z,4.60
2022-12-31T11:38:35.381Z,4.70
2022-12-31T11:44:00.459Z,4.70
2022-12-31T11:49:35.035Z,4.70
2022-12-31T11:55:02.704Z,4.70
2022-12-31T12:00:16.659Z,4.70
2022-12-31T12:05:25.687Z,4.70
2022-12-31T12:10:36.142Z,4.80
2022-12-31T12:15:38.149Z,4.80
2022-12-31T12:20:44.111Z,4.90
2022-12-31T12:25:45.983Z,4.80
2022-12-31T12:30:55.526Z,4.80
2022-12-31T12:36:08.574Z,4.80
2022-12-31T12:41:18.900Z,4.80
2022-12-31T12:46:29.596Z,4.90
2022-12-31T12:51:47.741Z,4.90
2022-12-31T12:56:59.900Z,4.90
2022-12-31T13:02:16.693Z,5.00
2022-12-31T13:07:37.766Z,5.00
2022-12-31T13:13:24.955Z,5.00
2022-12-31T13:18:54.890Z,5.00
2022-12-31T13:24:22.830Z,5.10
2022-12-31T13:29:31.127Z,5.10
2022-12-31T13:34:37.598Z,5.10
2022-12-31T13:39:41.903Z,5.10
2022-12-31T13:44:53.640Z,5.10
2022-12-31T13:50:12.535Z,5.10
2022-12-31T13:55:23.956Z,5.10
2022-12-31T14:00:31.500Z,5.10
2022-12-31T14:05:58.538Z,5.20
2022-12-31T14:11:38.687Z,5.20
2022-12-31T14:17:00.833Z,5.20
2022-12-31T14:22:29.928Z,5.20
2022-12-31T14:27:37.183Z,5.30
2022-12-31T14:33:11.022Z,5.30
2022-12-31T14:38:15.747Z,5.30
2022-12-31T14:43:35.190Z,5.30
2022-12-31T14:48:53.528Z,5.30
2022-12-31T14:53:57.143Z,5.30
2022-12-31T14:59:01.226Z,5.30
2022-12-31T15:04:13.551Z,5.30
2022-12-31T15:09:47.721Z,5.30
2022-12-31T15:15:11.392Z,5.30
2022-12-31T15:20:30.679Z,5.40
2022-12-31T15:25:41.204Z,5.40
2022-12-31T15:30:50.621Z,5.40
2022-12-31T15:35:55.847Z,5.40
2022-12-31T15:40:57.856Z,5.50
2022-12-31T15:46:00.570Z,5.50
2022-12-31T15:51:04.378Z,5.60
2022-12-31T15:56:08.374Z,5.60
2022-12-31T16:01:20.880Z,5.70
2022-12-31T16:06:22.924Z,5.70
2022-12-31T16:11:25.612Z,5.70
2022-12-31T16:16:30.391Z,5.70
2022-12-31T16:21:37.159Z,5.80
2022-12-31T16:26:51.621Z,5.80
2022-12-31T16:31:54.529Z,5.70
2022-12-31T16:37:04.801Z,5.70
2022-12-31T16:42:20.153Z,5.80
2022-12-31T16:47:34.075Z,5.70
2022-12-31T16:52:41.688Z,5.80
2022-12-31T16:57:47.001Z,5.80
2022-12-31T17:03:00.684Z,5.80
2022-12-31T17:08:28.144Z,5.80
2022-12-31T17:13:33.328Z,5.80
2022-12-31T17:18:39.085Z,5.80
2022-12-31T17:23:41.901Z,5.70
2022-12-31T17:28:49.736Z,5.70
2022-12-31T17:34:12.333Z,5.80
2022-12-31T17:39:18.987Z,5.80
2022-12-31T17:44:23.666Z,5.80
2022-12-31T17:49:31.008Z,5.80
2022-12-31T17:54:32.724Z,5.80
2022-12-31T17:59:35.380Z,5.80
2022-12-31T18:04:37.108Z,5.90
2022-12-31T18:09:38.839Z,5.80
2022-12-31T18:14:41.910Z,5.80
2022-12-31T18:20:04.191Z,5.90
2022-12-31T18:25:07.303Z,5.80
2022-12-31T18:30:10.652Z,5.80
2022-12-31T18:35:57.793Z,5.90
2022-12-31T18:40:50.800Z,5.90
2022-12-31T18:45:53.328Z,5.90
2022-12-31T18:50:56.433Z,5.90
2022-12-31T18:55:58.414Z,5.90
2022-12-31T19:01:00.292Z,5.90
2022-12-31T19:06:02.115Z,5.90
2022-12-31T19:11:03.964Z,6.00
2022-12-31T19:16:06.075Z,6.00
2022-12-31T19:21:15.876Z,6.00
2022-12-31T19:26:20.662Z,6.00
2022-12-31T19:31:22.379Z,6.00
2022-12-31T19:36:24.109Z,6.00
2022-12-31T19:41:25.856Z,6.00
2022-12-31T19:46:27.796Z,6.10
2022-12-31T19:51:29.539Z,6.10
2022-12-31T19:56:31.380Z,6.10
2022-12-31T20:01:33.608Z,6.10
2022-12-31T20:06:35.388Z,6.10
2022-12-31T20:11:37.121Z,6.10
2022-12-31T20:16:39.034Z,6.10
2022-12-31T20:21:42.097Z,6.10
2022-12-31T20:26:43.825Z,6.20
2022-12-31T20:31:45.577Z,6.20
2022-12-31T20:36:47.528Z,6.30
2022-12-31T20:41:49.261Z,6.30
2022-12-31T20:46:51.052Z,6.40
2022-12-31T20:51:52.773Z,6.50
2022-12-31T20:56:54.561Z,6.50
2022-12-31T21:02:20.484Z,6.60
2022-12-31T21:07:18.126Z,6.60
2022-12-31T21:12:38.594Z,6.60
2022-12-31T21:17:40.435Z,6.60
2022-12-31T21:22:42.374Z,6.60
2022-12-31T21:27:44.187Z,6.70
2022-12-31T21:32:46.107Z,6.70
2022-12-31T21:37:58.449Z,6.80
2022-12-31T21:43:02.259Z,6.80
2022-12-31T21:48:19.962Z,6.70
2022-12-31T21:53:29.050Z,6.80
2022-12-31T21:58:41.891Z,6.70
2022-12-31T22:03:43.740Z,6.80
2022-12-31T22:08:46.755Z,6.80
2022-12-31T22:13:49.166Z,6.80
2022-12-31T22:18:51.215Z,6.80
2022-12-31T22:23:55.040Z,6.80
2022-12-31T22:28:59.257Z,6.90
2022-12-31T22:34:01.988Z,6.90
2022-12-31T22:39:03.956Z,6.90
2022-12-31T22:44:05.832Z,6.90
2022-12-31T22:49:10.022Z,6.90
2022-12-31T22:54:12.107Z,6.90
2022-12-31T22:59:13.871Z,7.00
2022-12-31T23:04:16.013Z,6.90
2022-12-31T23:09:36.650Z,7.00
2022-12-31T23:14:57.109Z,7.00
2022-12-31T23:20:18.557Z,7.00
2022-12-31T23:25:20.597Z,7.10
2022-12-31T23:30:22.418Z,7.10
2022-12-31T23:35:24.198Z,7.20
2022-12-31T23:40:34.324Z,7.10
2022-12-31T23:45:36.611Z,7.10
2022-12-31T23:50:40.467Z,7.10
2022-12-31T23:55:42.189Z,7.10
